Time;durP1;ratioP1;P1;durP2;ratioP2;P2;SDS_P1;SDS_P2;PMS_P1;PMS_P2;Temp;Humidity;BMP_temperature;BMP_pressure;BME280_temperature;BME280_humidity;BME280_pressure;Samples;Min_cycle;Max_cycle;Signal;HPM_P1;HPM_P2
2023/06/06 00:00:15;;;;;;;3.10;2.43;;;;;;;;;;5096219;28;20976;-59
2023/06/06 00:02:45;;;;;;;2.33;1.67;;;;;;;;;;5096277;28;20544;-59
2023/06/06 00:05:13;;;;;;;2.70;2.30;;;;;;;;;;5096273;28;20441;-59
2023/06/06 00:07:42;;;;;;;2.90;1.83;;;;;;;;;;5096160;28;20490;-59
2023/06/06 00:10:11;;;;;;;3.20;1.90;;;;;;;;;;5096266;28;20459;-59
2023/06/06 00:12:38;;;;;;;2.10;1.90;;;;;;;;;;5096034;28;20513;-59
2023/06/06 00:15:06;;;;;;;2.80;2.00;;;;;;;;;;5095939;28;20451;-59
2023/06/06 00:17:33;;;;;;;2.07;1.87;;;;;;;;;;5096059;28;20476;-59
2023/06/06 00:20:08;;;;;;;4.53;2.33;;;;;;;;;;5095996;28;20447;-59
2023/06/06 00:22:36;;;;;;;2.33;1.60;;;;;;;;;;5095910;28;20446;-58
2023/06/06 00:25:03;;;;;;;1.90;1.80;;;;;;;;;;5095753;28;20445;-59
2023/06/06 00:27:30;;;;;;;1.90;1.80;;;;;;;;;;5095468;28;20944;-59
2023/06/06 00:29:58;;;;;;;5.83;2.50;;;;;;;;;;5095841;28;20458;-59
2023/06/06 00:32:25;;;;;;;2.13;2.03;;;;;;;;;;5095740;28;20463;-59
2023/06/06 00:34:52;;;;;;;2.20;2.00;;;;;;;;;;5095665;28;20455;-59
2023/06/06 00:37:20;;;;;;;4.60;1.90;;;;;;;;;;5095571;28;20937;-59
2023/06/06 00:39:48;;;;;;;3.77;2.20;;;;;;;;;;5094948;28;20419;-59
2023/06/06 00:42:15;;;;;;;2.93;2.60;;;;;;;;;;5095348;28;20530;-59
2023/06/06 00:44:41;;;;;;;2.00;1.90;;;;;;;;;;5095758;28;20451;-59
2023/06/06 00:47:09;;;;;;;2.47;1.80;;;;;;;;;;5095332;28;20447;-59
2023/06/06 00:49:37;;;;;;;3.20;2.20;;;;;;;;;;5095307;28;20855;-59
2023/06/06 00:52:04;;;;;;;2.20;1.87;;;;;;;;;;5095233;28;20537;-58
2023/06/06 00:54:33;;;;;;;2.07;1.90;;;;;;;;;;5095072;28;20497;-59
2023/06/06 00:57:00;;;;;;;2.00;1.90;;;;;;;;;;5095031;28;20762;-59
2023/06/06 00:59:27;;;;;;;2.60;1.90;;;;;;;;;;5095147;28;20453;-60
2023/06/06 01:01:54;;;;;;;4.60;2.20;;;;;;;;;;5095379;28;20429;-59
2023/06/06 01:04:24;;;;;;;2.00;1.80;;;;;;;;;;5095091;28;20476;-59
2023/06/06 01:06:51;;;;;;;3.80;1.83;;;;;;;;;;5094867;28;20862;-59
2023/06/06 01:09:19;;;;;;;2.80;2.23;;;;;;;;;;5094631;28;20461;-59
2023/06/06 01:11:51;;;;;;;3.70;2.37;;;;;;;;;;5095043;28;20459;-59
2023/06/06 01:14:22;;;;;;;2.30;2.10;;;;;;;;;;5094921;28;20459;-58
2023/06/06 01:16:52;;;;;;;2.33;1.87;;;;;;;;;;5095059;28;20458;-59
2023/06/06 01:19:21;;;;;;;2.20;2.00;;;;;;;;;;5094688;28;20452;-59
2023/06/06 01:21:51;;;;;;;2.90;2.30;;;;;;;;;;5094574;28;20451;-59
2023/06/06 01:24:19;;;;;;;3.60;1.60;;;;;;;;;;5094734;28;20535;-59
2023/06/06 01:26:46;;;;;;;4.10;2.13;;;;;;;;;;5094559;28;20510;-59
2023/06/06 01:29:13;;;;;;;2.07;1.97;;;;;;;;;;5094530;28;20911;-59
2023/06/06 01:31:44;;;;;;;3.40;1.90;;;;;;;;;;5094655;28;20440;-59
2023/06/06 01:34:16;;;;;;;5.97;2.70;;;;;;;;;;5094368;28;20444;-59
2023/06/06 01:36:49;;;;;;;3.20;2.10;;;;;;;;;;5094518;28;20777;-59
2023/06/06 01:39:20;;;;;;;2.53;1.83;;;;;;;;;;5094468;28;20480;-59
2023/06/06 01:41:51;;;;;;;3.73;2.10;;;;;;;;;;5094279;28;20552;-59
2023/06/06 01:44:18;;;;;;;2.77;2.20;;;;;;;;;;5094067;28;20986;-59
2023/06/06 01:46:45;;;;;;;2.80;2.50;;;;;;;;;;5094017;28;20602;-58
2023/06/06 01:49:13;;;;;;;2.10;1.90;;;;;;;;;;5094206;28;20479;-59
2023/06/06 01:51:40;;;;;;;2.73;2.53;;;;;;;;;;5093394;28;20789;-59
2023/06/06 01:54:07;;;;;;;4.57;2.60;;;;;;;;;;5094119;28;20448;-59
2023/06/06 01:56:35;;;;;;;2.70;1.90;;;;;;;;;;5093694;28;20451;-58
2023/06/06 01:59:02;;;;;;;3.73;1.80;;;;;;;;;;5094091;28;20547;-58
2023/06/06 02:01:29;;;;;;;2.17;1.97;;;;;;;;;;5093846;28;20453;-59
2023/06/06 02:03:56;;;;;;;3.23;2.07;;;;;;;;;;5093877;28;20467;-59
2023/06/06 02:06:24;;;;;;;4.10;2.03;;;;;;;;;;5093691;28;21018;-58
2023/06/06 02:08:51;;;;;;;2.70;2.07;;;;;;;;;;5093647;28;20489;-58
2023/06/06 02:11:18;;;;;;;3.03;2.40;;;;;;;;;;5093646;28;20453;-59
2023/06/06 02:13:47;;;;;;;2.43;2.23;;;;;;;;;;5093577;28;20449;-59
2023/06/06 02:16:16;;;;;;;2.60;1.93;;;;;;;;;;5093934;28;20454;-59
2023/06/06 02:18:44;;;;;;;2.33;2.13;;;;;;;;;;5093630;28;20783;-59
2023/06/06 02:21:11;;;;;;;2.00;1.90;;;;;;;;;;5093607;28;20795;-59
2023/06/06 02:23:38;;;;;;;2.63;2.30;;;;;;;;;;5093489;28;20547;-59
2023/06/06 02:26:05;;;;;;;1.90;1.80;;;;;;;;;;5093485;28;20513;-59
2023/06/06 02:28:32;;;;;;;3.17;2.70;;;;;;;;;;5093265;28;20468;-59
2023/06/06 02:31:02;;;;;;;2.30;2.10;;;;;;;;;;5093514;28;20542;-59
2023/06/06 02:33:29;;;;;;;4.03;2.13;;;;;;;;;;5093567;28;20483;-58
2023/06/06 02:35:56;;;;;;;6.20;2.50;;;;;;;;;;5093147;28;20457;-58
2023/06/06 02:38:23;;;;;;;3.53;2.20;;;;;;;;;;5093291;28;20543;-58
2023/06/06 02:40:50;;;;;;;6.00;2.30;;;;;;;;;;5093253;28;20922;-59
2023/06/06 02:43:17;;;;;;;4.73;2.17;;;;;;;;;;5093370;28;20488;-59
2023/06/06 02:45:45;;;;;;;7.60;2.90;;;;;;;;;;5093267;28;20461;-59
2023/06/06 02:48:15;;;;;;;5.03;2.30;;;;;;;;;;5093041;28;20481;-59
2023/06/06 02:50:42;;;;;;;3.77;1.90;;;;;;;;;;5093199;28;20433;-59
2023/06/06 02:53:11;;;;;;;3.50;2.57;;;;;;;;;;5093130;28;20424;-59
2023/06/06 02:55:39;;;;;;;5.40;2.40;;;;;;;;;;5092720;28;20504;-59
2023/06/06 02:58:06;;;;;;;3.83;2.37;;;;;;;;;;5093076;28;20426;-59
2023/06/06 03:00:33;;;;;;;5.00;2.07;;;;;;;;;;5093124;28;20453;-59
2023/06/06 03:03:00;;;;;;;2.20;2.00;;;;;;;;;;5095248;28;20455;-59
2023/06/06 03:05:31;;;;;;;2.77;2.13;;;;;;;;;;5099738;28;20423;-59
2023/06/06 03:07:58;;;;;;;2.20;2.00;;;;;;;;;;5099480;28;20556;-59
2023/06/06 03:10:25;;;;;;;1.87;1.53;;;;;;;;;;5099778;28;20505;-59
2023/06/06 03:12:52;;;;;;;5.17;2.47;;;;;;;;;;5099707;28;20882;-59
2023/06/06 03:15:18;;;;;;;2.50;2.00;;;;;;;;;;5099850;28;20453;-59
2023/06/06 03:17:48;;;;;;;3.27;2.30;;;;;;;;;;5099614;28;20886;-59
2023/06/06 03:20:15;;;;;;;4.70;2.13;;;;;;;;;;5099572;28;20868;-59
2023/06/06 03:22:44;;;;;;;3.13;1.83;;;;;;;;;;5099460;28;20422;-58
2023/06/06 03:25:13;;;;;;;2.30;2.10;;;;;;;;;;5099574;28;20483;-59
2023/06/06 03:27:42;;;;;;;2.47;2.27;;;;;;;;;;5099560;28;20483;-59
2023/06/06 03:30:10;;;;;;;11.93;3.10;;;;;;;;;;5099410;28;20906;-59
2023/06/06 03:32:37;;;;;;;4.47;2.93;;;;;;;;;;5099357;28;20998;-59
2023/06/06 03:35:04;;;;;;;7.70;3.10;;;;;;;;;;5099363;28;20474;-59
2023/06/06 03:37:30;;;;;;;10.93;2.80;;;;;;;;;;5099520;28;20883;-59
2023/06/06 03:39:59;;;;;;;2.37;2.03;;;;;;;;;;5099450;28;20426;-59
2023/06/06 03:42:25;;;;;;;2.47;2.27;;;;;;;;;;5099362;28;20448;-59
2023/06/06 03:44:52;;;;;;;2.73;2.10;;;;;;;;;;5099375;28;20527;-59
2023/06/06 03:47:19;;;;;;;2.73;2.43;;;;;;;;;;5099085;28;20947;-59
2023/06/06 03:49:46;;;;;;;4.83;2.20;;;;;;;;;;5099064;28;20476;-59
2023/06/06 03:52:13;;;;;;;2.50;2.30;;;;;;;;;;5099408;28;20448;-60
2023/06/06 03:54:41;;;;;;;3.80;2.63;;;;;;;;;;5099134;28;20444;-59
2023/06/06 03:57:10;;;;;;;6.30;2.80;;;;;;;;;;5099259;28;20424;-59
2023/06/06 03:59:37;;;;;;;3.37;2.57;;;;;;;;;;5099147;28;20430;-59
2023/06/06 04:02:04;;;;;;;9.80;2.70;;;;;;;;;;5099138;28;21018;-59
2023/06/06 04:04:32;;;;;;;4.87;2.77;;;;;;;;;;5099351;28;20447;-59
2023/06/06 04:06:59;;;;;;;2.90;2.70;;;;;;;;;;5099169;28;20453;-59
2023/06/06 04:09:26;;;;;;;4.23;2.90;;;;;;;;;;5099280;28;20511;-59
2023/06/06 04:11:55;;;;;;;7.90;3.50;;;;;;;;;;5099051;28;20935;-59
2023/06/06 04:14:23;;;;;;;4.50;2.13;;;;;;;;;;5097412;28;20448;-60
2023/06/06 04:16:50;;;;;;;3.77;2.90;;;;;;;;;;5095826;28;20444;-60
2023/06/06 04:19:18;;;;;;;5.07;2.70;;;;;;;;;;5096229;28;20455;-59
2023/06/06 04:21:45;;;;;;;6.27;2.47;;;;;;;;;;5095989;28;20449;-59
2023/06/06 04:24:12;;;;;;;5.40;2.90;;;;;;;;;;5095743;28;20977;-59
2023/06/06 04:26:40;;;;;;;11.13;3.30;;;;;;;;;;5095933;28;20935;-59
2023/06/06 04:29:08;;;;;;;8.60;2.97;;;;;;;;;;5095579;28;20480;-60
2023/06/06 04:31:38;;;;;;;5.87;2.80;;;;;;;;;;5095574;28;20449;-59
2023/06/06 04:34:05;;;;;;;9.00;2.33;;;;;;;;;;5095902;28;20484;-59
2023/06/06 04:36:34;;;;;;;6.27;3.20;;;;;;;;;;5095835;28;20462;-59
2023/06/06 04:39:01;;;;;;;3.77;2.47;;;;;;;;;;5096033;28;20478;-59
2023/06/06 04:41:30;;;;;;;6.03;2.53;;;;;;;;;;5095896;28;20483;-60
2023/06/06 04:43:58;;;;;;;5.60;2.20;;;;;;;;;;5095329;28;20450;-59
2023/06/06 04:46:29;;;;;;;6.20;2.27;;;;;;;;;;5095573;28;20760;-60
2023/06/06 04:48:59;;;;;;;4.50;2.40;;;;;;;;;;5095438;28;20476;-59
2023/06/06 04:51:29;;;;;;;2.87;2.57;;;;;;;;;;5095623;28;20471;-62
2023/06/06 04:53:57;;;;;;;3.17;2.67;;;;;;;;;;5095213;28;20452;-59
2023/06/06 04:56:24;;;;;;;8.77;3.87;;;;;;;;;;5095203;28;20477;-60
2023/06/06 04:58:53;;;;;;;2.60;2.27;;;;;;;;;;5095214;28;20460;-60
2023/06/06 05:01:20;;;;;;;3.03;2.57;;;;;;;;;;5095286;28;20809;-60
2023/06/06 05:03:47;;;;;;;3.80;3.07;;;;;;;;;;5095084;28;20453;-59
2023/06/06 05:06:16;;;;;;;7.53;3.17;;;;;;;;;;5095054;28;20427;-59
2023/06/06 05:08:45;;;;;;;3.33;2.37;;;;;;;;;;5094700;28;20477;-59
2023/06/06 05:11:12;;;;;;;4.73;2.60;;;;;;;;;;5094828;28;21000;-60
2023/06/06 05:13:40;;;;;;;2.90;2.30;;;;;;;;;;5094918;28;20448;-60
2023/06/06 05:16:08;;;;;;;24.93;6.40;;;;;;;;;;5094792;28;20452;-60
2023/06/06 05:18:35;;;;;;;3.47;2.30;;;;;;;;;;5094912;28;20532;-59
2023/06/06 05:21:03;;;;;;;3.00;2.70;;;;;;;;;;5094607;28;20775;-59
2023/06/06 05:23:32;;;;;;;4.33;2.50;;;;;;;;;;5094567;28;20445;-59
2023/06/06 05:25:59;;;;;;;3.23;2.90;;;;;;;;;;5093698;28;20444;-60
2023/06/06 05:28:28;;;;;;;4.63;3.00;;;;;;;;;;5094414;28;20479;-59
2023/06/06 05:30:56;;;;;;;5.10;2.97;;;;;;;;;;5094682;28;20449;-59
2023/06/06 05:33:25;;;;;;;3.53;2.87;;;;;;;;;;5094342;28;20445;-59
2023/06/06 05:35:52;;;;;;;8.63;2.50;;;;;;;;;;5094257;28;20453;-59
2023/06/06 05:38:19;;;;;;;5.77;2.60;;;;;;;;;;5094653;28;20543;-58
2023/06/06 05:40:48;;;;;;;6.63;4.10;;;;;;;;;;5094170;28;20851;-58
2023/06/06 05:43:15;;;;;;;3.80;2.37;;;;;;;;;;5094378;28;20441;-59
2023/06/06 05:45:42;;;;;;;3.10;2.50;;;;;;;;;;5094215;28;20462;-60
2023/06/06 05:48:09;;;;;;;2.77;2.43;;;;;;;;;;5094156;28;20446;-58
2023/06/06 05:50:36;;;;;;;2.87;2.57;;;;;;;;;;5094008;28;20496;-60
2023/06/06 05:53:03;;;;;;;3.40;3.10;;;;;;;;;;5094290;28;20477;-59
2023/06/06 05:55:31;;;;;;;3.33;2.43;;;;;;;;;;5093947;28;20481;-59
2023/06/06 05:57:59;;;;;;;2.37;2.27;;;;;;;;;;5094055;28;20468;-59
2023/06/06 06:00:28;;;;;;;4.37;2.70;;;;;;;;;;5094067;28;20453;-59
2023/06/06 06:02:56;;;;;;;3.00;2.80;;;;;;;;;;5093628;28;20453;-59
2023/06/06 06:05:23;;;;;;;7.97;3.10;;;;;;;;;;5093894;28;20448;-59
2023/06/06 06:07:52;;;;;;;3.77;2.80;;;;;;;;;;5093725;28;20823;-59
2023/06/06 06:10:19;;;;;;;3.00;2.80;;;;;;;;;;5088601;28;20456;-58
2023/06/06 06:12:46;;;;;;;5.07;2.50;;;;;;;;;;5073434;28;20455;-59
2023/06/06 06:15:14;;;;;;;4.80;2.77;;;;;;;;;;5086464;28;20442;-59
2023/06/06 06:17:41;;;;;;;3.80;2.87;;;;;;;;;;5093602;28;20531;-58
2023/06/06 06:20:11;;;;;;;3.10;2.80;;;;;;;;;;5093571;28;20508;-59
2023/06/06 06:22:38;;;;;;;2.83;2.60;;;;;;;;;;5088792;28;20538;-59
2023/06/06 06:25:08;;;;;;;4.00;2.77;;;;;;;;;;5090980;28;21010;-59
2023/06/06 06:27:35;;;;;;;3.37;2.97;;;;;;;;;;5092856;28;20441;-58
2023/06/06 06:30:05;;;;;;;3.63;2.67;;;;;;;;;;5092296;28;20443;-59
2023/06/06 06:32:34;;;;;;;4.10;3.70;;;;;;;;;;5092853;28;20442;-58
2023/06/06 06:35:02;;;;;;;6.00;3.30;;;;;;;;;;5092508;28;20847;-59
2023/06/06 06:37:29;;;;;;;6.03;3.07;;;;;;;;;;5092719;28;20449;-59
2023/06/06 06:39:56;;;;;;;8.53;2.93;;;;;;;;;;5093152;28;20448;-58
2023/06/06 06:42:23;;;;;;;3.07;2.87;;;;;;;;;;5093055;28;20463;-59
2023/06/06 06:44:50;;;;;;;3.97;2.83;;;;;;;;;;5092978;28;20541;-58
2023/06/06 06:47:17;;;;;;;4.03;3.03;;;;;;;;;;5093224;28;20488;-59
2023/06/06 06:49:46;;;;;;;3.50;3.20;;;;;;;;;;5092986;28;20472;-60
2023/06/06 06:52:15;;;;;;;6.30;3.10;;;;;;;;;;5092926;28;20959;-59
2023/06/06 06:54:46;;;;;;;6.10;3.20;;;;;;;;;;5092999;28;20448;-60
2023/06/06 06:57:13;;;;;;;8.70;3.70;;;;;;;;;;5093097;28;20477;-59
2023/06/06 06:59:40;;;;;;;3.50;3.27;;;;;;;;;;5092782;28;20453;-58
2023/06/06 07:02:07;;;;;;;8.00;3.80;;;;;;;;;;5089962;28;20498;-59
2023/06/06 07:04:34;;;;;;;3.20;3.00;;;;;;;;;;5092572;28;20863;-59
2023/06/06 07:07:03;;;;;;;2.87;2.67;;;;;;;;;;5092654;28;20477;-59
2023/06/06 07:09:30;;;;;;;4.07;3.20;;;;;;;;;;5092362;28;21013;-58
2023/06/06 07:11:56;;;;;;;7.03;3.10;;;;;;;;;;5092687;28;20453;-58
2023/06/06 07:14:25;;;;;;;4.07;3.77;;;;;;;;;;5092762;28;20544;-58
2023/06/06 07:16:52;;;;;;;3.17;2.77;;;;;;;;;;5092718;28;20511;-59
2023/06/06 07:19:19;;;;;;;3.60;3.20;;;;;;;;;;5092120;28;20446;-58
2023/06/06 07:21:46;;;;;;;4.50;3.30;;;;;;;;;;5092563;28;20550;-58
2023/06/06 07:24:16;;;;;;;3.97;3.53;;;;;;;;;;5091558;28;21040;-59
2023/06/06 07:26:44;;;;;;;3.83;3.37;;;;;;;;;;5092529;28;20795;-58
2023/06/06 07:29:11;;;;;;;3.90;3.30;;;;;;;;;;5092675;28;20453;-59
2023/06/06 07:31:39;;;;;;;4.30;4.00;;;;;;;;;;5092213;28;20512;-58
2023/06/06 07:34:06;;;;;;;13.20;4.17;;;;;;;;;;5092328;28;21045;-56
2023/06/06 07:36:32;;;;;;;4.23;2.87;;;;;;;;;;5092668;28;20474;-58
2023/06/06 07:39:01;;;;;;;4.10;3.20;;;;;;;;;;5091324;28;20450;-58
2023/06/06 07:41:30;;;;;;;4.50;3.23;;;;;;;;;;5092554;28;20454;-59
2023/06/06 07:43:57;;;;;;;3.40;3.10;;;;;;;;;;5092545;28;20456;-59
2023/06/06 07:46:26;;;;;;;8.13;3.40;;;;;;;;;;5092400;28;20485;-59
2023/06/06 07:48:53;;;;;;;4.10;3.70;;;;;;;;;;5092446;28;20456;-57
2023/06/06 07:51:20;;;;;;;3.53;3.23;;;;;;;;;;5095528;28;20541;-60
2023/06/06 07:53:47;;;;;;;4.17;3.13;;;;;;;;;;5096352;28;20503;-60
2023/06/06 07:56:14;;;;;;;7.77;4.27;;;;;;;;;;5095764;28;20996;-59
2023/06/06 07:58:46;;;;;;;8.57;3.90;;;;;;;;;;5096009;28;20530;-57
2023/06/06 08:01:13;;;;;;;4.53;3.50;;;;;;;;;;5096162;28;20453;-59
2023/06/06 08:03:40;;;;;;;4.17;3.07;;;;;;;;;;5096005;28;20457;-60
2023/06/06 08:06:07;;;;;;;3.97;3.63;;;;;;;;;;5094235;28;20466;-58
2023/06/06 08:08:36;;;;;;;3.67;2.90;;;;;;;;;;5088848;28;20852;-58
2023/06/06 08:11:03;;;;;;;11.50;4.00;;;;;;;;;;5095833;28;20492;-58
2023/06/06 08:13:30;;;;;;;3.30;3.00;;;;;;;;;;5096305;28;20484;-59
2023/06/06 08:15:58;;;;;;;3.80;3.40;;;;;;;;;;5095618;28;20447;-59
2023/06/06 08:18:25;;;;;;;3.40;3.10;;;;;;;;;;5095898;28;20867;-59
2023/06/06 08:20:52;;;;;;;4.30;3.63;;;;;;;;;;5096031;28;20482;-60
2023/06/06 08:23:19;;;;;;;4.87;3.70;;;;;;;;;;5095366;28;20528;-58
2023/06/06 08:25:46;;;;;;;18.77;3.73;;;;;;;;;;5095669;28;20541;-59
2023/06/06 08:28:13;;;;;;;9.30;4.50;;;;;;;;;;5095614;28;20508;-55
2023/06/06 08:30:40;;;;;;;4.27;3.87;;;;;;;;;;5095868;28;20880;-56
2023/06/06 08:33:08;;;;;;;4.43;3.43;;;;;;;;;;5095352;28;20450;-57
2023/06/06 08:35:35;;;;;;;4.53;4.10;;;;;;;;;;5095444;28;20534;-51
2023/06/06 08:38:02;;;;;;;3.80;3.40;;;;;;;;;;5095494;28;20886;-57
2023/06/06 08:40:29;;;;;;;4.50;3.87;;;;;;;;;;5095490;28;20520;-54
2023/06/06 08:42:58;;;;;;;3.50;3.20;;;;;;;;;;5095408;28;20492;-59
2023/06/06 08:45:25;;;;;;;4.77;3.70;;;;;;;;;;5095168;28;20486;-60
2023/06/06 08:47:53;;;;;;;4.30;3.73;;;;;;;;;;5094877;28;20855;-58
2023/06/06 08:50:22;;;;;;;4.30;3.90;;;;;;;;;;5095204;28;20471;-59
2023/06/06 08:52:50;;;;;;;3.90;3.60;;;;;;;;;;5095119;28;20805;-58
2023/06/06 08:55:17;;;;;;;4.43;4.03;;;;;;;;;;5095113;28;20474;-55
2023/06/06 08:57:44;;;;;;;3.80;3.60;;;;;;;;;;5094998;28;20458;-58
2023/06/06 09:00:18;;;;;;;4.80;3.60;;;;;;;;;;5094741;28;20462;-58
2023/06/06 09:02:47;;;;;;;10.50;3.87;;;;;;;;;;5095094;28;20451;-57
2023/06/06 09:05:16;;;;;;;4.33;3.37;;;;;;;;;;5094682;28;20478;-56
2023/06/06 09:07:44;;;;;;;4.07;3.77;;;;;;;;;;5094674;28;20479;-58
2023/06/06 09:10:12;;;;;;;7.00;3.97;;;;;;;;;;5094803;28;20478;-58
2023/06/06 09:12:42;;;;;;;8.07;3.90;;;;;;;;;;5094728;28;20496;-59
2023/06/06 09:15:10;;;;;;;7.43;4.53;;;;;;;;;;5094856;28;20869;-59
2023/06/06 09:17:37;;;;;;;4.20;3.80;;;;;;;;;;5094838;28;20443;-59
2023/06/06 09:20:06;;;;;;;4.40;4.00;;;;;;;;;;5094526;28;20462;-59
2023/06/06 09:22:39;;;;;;;4.53;4.13;;;;;;;;;;5094501;28;20532;-59
2023/06/06 09:25:17;;;;;;;5.83;3.97;;;;;;;;;;5094539;28;20853;-60
2023/06/06 09:27:46;;;;;;;5.17;3.83;;;;;;;;;;5094410;28;20478;-59
2023/06/06 09:30:20;;;;;;;4.03;3.73;;;;;;;;;;5094338;28;20538;-60
2023/06/06 09:32:47;;;;;;;9.03;3.77;;;;;;;;;;5094219;28;20455;-60
2023/06/06 09:35:15;;;;;;;4.10;3.70;;;;;;;;;;5094261;28;20457;-59
2023/06/06 09:37:42;;;;;;;4.43;3.57;;;;;;;;;;5094056;28;20447;-59
2023/06/06 09:40:14;;;;;;;3.63;3.30;;;;;;;;;;5094248;28;20447;-58
2023/06/06 09:42:43;;;;;;;5.53;3.80;;;;;;;;;;5094188;28;20505;-55
2023/06/06 09:45:14;;;;;;;4.27;3.90;;;;;;;;;;5094244;28;20442;-56
2023/06/06 09:47:42;;;;;;;4.57;4.00;;;;;;;;;;5094179;28;20450;-60
2023/06/06 09:50:09;;;;;;;6.13;4.10;;;;;;;;;;5093737;28;20443;-58
2023/06/06 09:52:36;;;;;;;4.53;4.00;;;;;;;;;;5093964;28;20494;-55
2023/06/06 09:55:08;;;;;;;3.77;3.50;;;;;;;;;;5094122;28;20816;-53
2023/06/06 09:57:37;;;;;;;4.17;3.87;;;;;;;;;;5093979;28;20451;-57
2023/06/06 10:00:16;;;;;;;5.57;3.70;;;;;;;;;;5093983;28;20470;-52
2023/06/06 10:02:43;;;;;;;4.90;3.70;;;;;;;;;;5093845;28;20450;-53
2023/06/06 10:05:12;;;;;;;4.50;4.10;;;;;;;;;;5094035;28;20493;-54
2023/06/06 10:07:44;;;;;;;3.87;3.40;;;;;;;;;;5093928;28;20439;-58
2023/06/06 10:10:12;;;;;;;4.20;3.90;;;;;;;;;;5093938;28;20538;-59
2023/06/06 10:12:40;;;;;;;7.87;3.50;;;;;;;;;;5093185;28;20791;-57
2023/06/06 10:15:11;;;;;;;6.37;3.73;;;;;;;;;;5093658;28;20447;-56
2023/06/06 10:17:38;;;;;;;4.50;4.10;;;;;;;;;;5093536;28;20451;-55
2023/06/06 10:20:07;;;;;;;3.80;3.50;;;;;;;;;;5093585;28;20454;-59
2023/06/06 10:22:34;;;;;;;4.53;3.50;;;;;;;;;;5093487;28;20458;-57
2023/06/06 10:25:01;;;;;;;5.67;3.57;;;;;;;;;;5093318;28;20451;-59
2023/06/06 10:27:29;;;;;;;12.30;4.13;;;;;;;;;;5093315;28;20466;-59
2023/06/06 10:30:01;;;;;;;3.60;3.30;;;;;;;;;;5093278;28;20493;-58
2023/06/06 10:32:36;;;;;;;4.33;4.00;;;;;;;;;;5093206;28;20489;-59
2023/06/06 10:35:06;;;;;;;3.80;3.40;;;;;;;;;;5093144;28;20443;-59
2023/06/06 10:37:33;;;;;;;4.03;3.67;;;;;;;;;;5093096;28;20937;-59
2023/06/06 10:40:03;;;;;;;3.97;3.47;;;;;;;;;;5092990;28;20454;-59
2023/06/06 10:42:37;;;;;;;5.60;3.50;;;;;;;;;;5093252;28;20451;-59
2023/06/06 10:45:07;;;;;;;4.20;3.90;;;;;;;;;;5093285;28;20466;-59
2023/06/06 10:47:35;;;;;;;7.07;3.97;;;;;;;;;;5093068;28;20454;-59
2023/06/06 10:50:17;;;;;;;6.70;4.33;;;;;;;;;;5093043;28;20534;-59
2023/06/06 10:52:44;;;;;;;3.70;3.50;;;;;;;;;;5091070;28;20577;-59
2023/06/06 10:55:15;;;;;;;6.27;3.60;;;;;;;;;;5092815;28;20907;-60
2023/06/06 10:57:42;;;;;;;3.30;3.00;;;;;;;;;;5093052;28;20535;-59
2023/06/06 11:00:16;;;;;;;6.77;3.20;;;;;;;;;;5092974;28;20862;-59
2023/06/06 11:02:43;;;;;;;4.13;3.63;;;;;;;;;;5092819;28;20494;-59
2023/06/06 11:05:10;;;;;;;3.80;3.53;;;;;;;;;;5092751;28;20449;-59
2023/06/06 11:07:38;;;;;;;6.17;3.83;;;;;;;;;;5093123;28;20447;-59
2023/06/06 11:10:05;;;;;;;4.10;3.70;;;;;;;;;;5092915;28;20946;-57
2023/06/06 11:12:34;;;;;;;4.73;3.97;;;;;;;;;;5092602;28;20974;-57
2023/06/06 11:15:05;;;;;;;3.20;3.00;;;;;;;;;;5092796;28;20934;-57
2023/06/06 11:17:46;;;;;;;4.87;3.47;;;;;;;;;;5092672;28;20554;-58
2023/06/06 11:20:19;;;;;;;4.20;3.80;;;;;;;;;;5092835;28;20447;-59
2023/06/06 11:22:53;;;;;;;4.00;3.60;;;;;;;;;;5092819;28;20454;-59
2023/06/06 11:25:23;;;;;;;9.00;4.20;;;;;;;;;;5096267;28;20447;-59
2023/06/06 11:27:50;;;;;;;5.00;3.90;;;;;;;;;;5096892;28;20837;-59
2023/06/06 11:30:18;;;;;;;3.83;3.40;;;;;;;;;;5096728;28;20486;-59
2023/06/06 11:32:47;;;;;;;4.90;3.80;;;;;;;;;;5096901;28;20976;-59
2023/06/06 11:35:16;;;;;;;12.10;4.63;;;;;;;;;;5096915;28;20451;-59
2023/06/06 11:37:43;;;;;;;4.97;3.80;;;;;;;;;;5096701;28;20455;-60
2023/06/06 11:40:11;;;;;;;4.03;3.67;;;;;;;;;;5096900;28;20857;-60
2023/06/06 11:42:44;;;;;;;3.90;3.70;;;;;;;;;;5096022;28;20845;-59
2023/06/06 11:45:15;;;;;;;4.63;4.33;;;;;;;;;;5096671;28;20450;-59
2023/06/06 11:47:42;;;;;;;4.00;3.70;;;;;;;;;;5096566;28;20488;-60
2023/06/06 11:50:11;;;;;;;4.30;4.00;;;;;;;;;;5095962;28;20546;-60
2023/06/06 11:52:45;;;;;;;4.17;3.77;;;;;;;;;;5096316;28;20571;-60
2023/06/06 11:55:12;;;;;;;3.70;3.37;;;;;;;;;;5097266;28;20498;-58
2023/06/06 11:57:39;;;;;;;5.60;3.87;;;;;;;;;;5098026;28;20864;-62
2023/06/06 12:00:14;;;;;;;4.33;3.93;;;;;;;;;;5094043;28;20882;-60
2023/06/06 12:02:41;;;;;;;4.20;3.87;;;;;;;;;;5095604;28;20529;-57
2023/06/06 12:05:20;;;;;;;3.70;3.40;;;;;;;;;;5095432;28;20447;-61
2023/06/06 12:07:47;;;;;;;4.80;4.30;;;;;;;;;;5093710;28;20476;-59
2023/06/06 12:10:22;;;;;;;3.67;3.37;;;;;;;;;;5096001;28;20487;-59
2023/06/06 12:12:49;;;;;;;4.63;4.20;;;;;;;;;;5096274;28;20482;-59
2023/06/06 12:15:16;;;;;;;4.13;3.73;;;;;;;;;;5095617;28;20595;-59
2023/06/06 12:17:44;;;;;;;5.93;3.77;;;;;;;;;;5096229;28;20884;-59
2023/06/06 12:20:12;;;;;;;4.47;3.90;;;;;;;;;;5095745;28;20447;-59
2023/06/06 12:22:40;;;;;;;3.70;3.40;;;;;;;;;;5096099;28;20523;-60
2023/06/06 12:25:07;;;;;;;3.90;3.63;;;;;;;;;;5095792;28;20542;-59
2023/06/06 12:27:38;;;;;;;4.70;4.17;;;;;;;;;;5095238;28;20544;-59
2023/06/06 12:30:07;;;;;;;11.73;3.90;;;;;;;;;;5095448;28;20457;-58
2023/06/06 12:32:36;;;;;;;4.73;4.00;;;;;;;;;;5092390;28;20475;-59
2023/06/06 12:35:03;;;;;;;4.27;3.97;;;;;;;;;;5094885;28;20516;-58
2023/06/06 12:37:37;;;;;;;5.90;3.50;;;;;;;;;;5094964;28;20443;-59
2023/06/06 12:40:14;;;;;;;5.77;3.87;;;;;;;;;;5095191;28;20443;-59
2023/06/06 12:42:41;;;;;;;4.30;3.77;;;;;;;;;;5093517;28;20439;-59
2023/06/06 12:45:09;;;;;;;3.90;3.60;;;;;;;;;;5094740;28;20439;-59
2023/06/06 12:47:36;;;;;;;4.27;3.97;;;;;;;;;;5095362;28;20443;-59
2023/06/06 12:50:03;;;;;;;5.00;4.00;;;;;;;;;;5095417;28;20478;-59
2023/06/06 12:52:30;;;;;;;4.10;3.70;;;;;;;;;;5095294;28;20561;-59
2023/06/06 12:54:59;;;;;;;3.87;3.57;;;;;;;;;;5095294;28;20524;-60
2023/06/06 12:57:27;;;;;;;4.43;4.13;;;;;;;;;;5095115;28;20885;-59
2023/06/06 12:59:55;;;;;;;4.27;4.00;;;;;;;;;;5095073;28;20446;-59
2023/06/06 13:02:23;;;;;;;4.20;3.90;;;;;;;;;;5095300;28;20596;-59
2023/06/06 13:04:50;;;;;;;4.50;4.20;;;;;;;;;;5095089;28;20508;-60
2023/06/06 13:07:17;;;;;;;4.80;4.40;;;;;;;;;;5094896;28;20542;-58
2023/06/06 13:09:44;;;;;;;4.37;3.97;;;;;;;;;;5094951;28;21000;-59
2023/06/06 13:12:11;;;;;;;4.27;3.90;;;;;;;;;;5094637;28;20830;-59
2023/06/06 13:14:40;;;;;;;3.73;3.43;;;;;;;;;;5094436;28;20470;-58
2023/06/06 13:17:07;;;;;;;5.10;3.70;;;;;;;;;;5094229;28;20451;-59
2023/06/06 13:19:34;;;;;;;5.20;4.27;;;;;;;;;;5094176;28;20447;-58
2023/06/06 13:22:02;;;;;;;4.83;3.90;;;;;;;;;;5094301;28;20453;-58
2023/06/06 13:24:29;;;;;;;6.67;3.73;;;;;;;;;;5094097;28;20447;-59
2023/06/06 13:26:56;;;;;;;5.37;3.53;;;;;;;;;;5093954;28;21007;-58
2023/06/06 13:29:23;;;;;;;4.50;4.10;;;;;;;;;;5093809;28;21913;-59
2023/06/06 13:31:52;;;;;;;4.53;4.10;;;;;;;;;;5091404;28;20467;-59
2023/06/06 13:34:20;;;;;;;4.50;4.10;;;;;;;;;;5093948;28;20447;-58
2023/06/06 13:36:47;;;;;;;6.23;4.90;;;;;;;;;;5094288;28;20950;-58
2023/06/06 13:39:14;;;;;;;5.40;4.77;;;;;;;;;;5094804;28;20455;-58
2023/06/06 13:41:42;;;;;;;4.47;4.07;;;;;;;;;;5094449;28;20447;-59
2023/06/06 13:44:18;;;;;;;10.10;4.27;;;;;;;;;;5094267;28;20457;-58
2023/06/06 13:46:45;;;;;;;7.10;4.27;;;;;;;;;;5093755;28;20533;-58
2023/06/06 13:49:14;;;;;;;4.67;4.10;;;;;;;;;;5093861;28;20443;-58
2023/06/06 13:51:42;;;;;;;4.80;4.40;;;;;;;;;;5093915;28;20439;-59
2023/06/06 13:54:09;;;;;;;4.40;4.00;;;;;;;;;;5093928;28;20522;-58
2023/06/06 13:56:36;;;;;;;6.67;4.53;;;;;;;;;;5090646;28;20501;-58
2023/06/06 13:59:02;;;;;;;8.30;3.90;;;;;;;;;;5093432;28;20535;-60
2023/06/06 14:01:30;;;;;;;4.73;4.30;;;;;;;;;;5093259;28;20530;-58
2023/06/06 14:03:57;;;;;;;6.83;4.53;;;;;;;;;;5093829;28;20454;-59
2023/06/06 14:06:26;;;;;;;6.80;4.50;;;;;;;;;;5093521;28;20354;-59
2023/06/06 14:08:53;;;;;;;5.63;4.50;;;;;;;;;;5093549;28;20936;-59
2023/06/06 14:11:20;;;;;;;7.40;4.50;;;;;;;;;;5087854;28;20527;-58
2023/06/06 14:13:47;;;;;;;6.40;3.60;;;;;;;;;;5073502;28;20483;-59
2023/06/06 14:16:17;;;;;;;4.27;3.43;;;;;;;;;;5072654;28;20448;-59
2023/06/06 14:18:46;;;;;;;7.63;3.60;;;;;;;;;;5073608;28;20807;-58
2023/06/06 14:21:28;;;;;;;5.93;3.17;;;;;;;;;;5073278;28;20549;-58
2023/06/06 14:23:56;;;;;;;4.13;3.23;;;;;;;;;;5073466;28;20545;-58
2023/06/06 14:26:23;;;;;;;3.87;3.50;;;;;;;;;;5073362;28;20452;-58
2023/06/06 14:28:51;;;;;;;3.57;3.20;;;;;;;;;;5073135;28;20449;-58
2023/06/06 14:31:18;;;;;;;10.30;3.60;;;;;;;;;;5072886;28;20486;-58
2023/06/06 14:33:45;;;;;;;4.07;3.77;;;;;;;;;;5072864;28;20526;-58
2023/06/06 14:36:12;;;;;;;4.83;3.50;;;;;;;;;;5073165;28;20811;-58
2023/06/06 14:38:39;;;;;;;6.00;3.50;;;;;;;;;;5073114;28;20452;-59
2023/06/06 14:41:08;;;;;;;8.47;3.60;;;;;;;;;;5073114;28;20452;-58
2023/06/06 14:43:35;;;;;;;3.87;3.37;;;;;;;;;;5073039;28;20929;-59
2023/06/06 14:46:02;;;;;;;3.63;3.43;;;;;;;;;;5072881;28;20447;-58
2023/06/06 14:48:31;;;;;;;3.83;3.27;;;;;;;;;;5073175;28;20479;-60